Time;durP1;ratioP1;P1;durP2;ratioP2;P2;SDS_P1;SDS_P2;PMS_P1;PMS_P2;Temp;Humidity;BMP_temperature;BMP_pressure;BME280_temperature;BME280_humidity;BME280_pressure;Samples;Min_cycle;Max_cycle;Signal;HPM_P1;HPM_P2
2023/05/22 00:01:03;;;;;;;29.42;26.27;;;;;;;;;;5031877;28;20025;-56
2023/05/22 00:03:30;;;;;;;29.90;26.45;;;;;;;;;;5031710;28;20029;-56
2023/05/22 00:05:57;;;;;;;30.45;27.33;;;;;;;;;;5029925;28;20053;-52
2023/05/22 00:08:23;;;;;;;29.20;26.20;;;;;;;;;;5031770;28;20022;-56
2023/05/22 00:10:49;;;;;;;28.38;25.33;;;;;;;;;;5031652;28;20021;-53
2023/05/22 00:13:15;;;;;;;29.58;26.48;;;;;;;;;;5031709;28;20422;-54
2023/05/22 00:15:41;;;;;;;28.27;25.38;;;;;;;;;;5049458;23;20094;-61
2023/05/22 00:18:07;;;;;;;28.70;25.27;;;;;;;;;;5020266;28;20049;-60
2023/05/22 00:20:37;;;;;;;30.10;26.90;;;;;;;;;;5019761;28;20018;-59
2023/05/22 00:23:03;;;;;;;28.80;25.70;;;;;;;;;;5017167;28;20014;-58
2023/05/22 00:25:29;;;;;;;27.95;25.15;;;;;;;;;;4999242;28;20054;-61
2023/05/22 00:27:55;;;;;;;28.98;26.02;;;;;;;;;;5018482;28;20077;-61
2023/05/22 00:30:21;;;;;;;29.67;26.52;;;;;;;;;;5018778;28;20117;-59
2023/05/22 00:32:47;;;;;;;28.15;25.35;;;;;;;;;;5017980;28;20045;-58
2023/05/22 00:35:13;;;;;;;28.63;25.67;;;;;;;;;;5016979;28;20022;-60
2023/05/22 00:37:40;;;;;;;27.10;24.45;;;;;;;;;;5017779;28;20025;-60
2023/05/22 00:40:07;;;;;;;27.85;24.98;;;;;;;;;;4999737;28;20037;-60
2023/05/22 00:42:33;;;;;;;29.02;25.92;;;;;;;;;;5017349;28;20060;-57
2023/05/22 00:44:59;;;;;;;27.23;24.42;;;;;;;;;;5016968;28;20033;-60
2023/05/22 00:47:25;;;;;;;27.88;24.52;;;;;;;;;;5000783;28;20022;-63
2023/05/22 00:49:52;;;;;;;26.85;24.05;;;;;;;;;;5019911;28;20104;-62
2023/05/22 00:52:18;;;;;;;28.08;25.25;;;;;;;;;;5019766;28;20049;-61
2023/05/22 00:54:45;;;;;;;28.52;25.63;;;;;;;;;;5001767;28;20034;-62
2023/05/22 00:57:12;;;;;;;27.73;24.92;;;;;;;;;;5020253;28;20026;-62
2023/05/22 00:59:38;;;;;;;28.13;25.10;;;;;;;;;;5020498;28;20030;-63
2023/05/22 01:02:04;;;;;;;27.38;24.58;;;;;;;;;;5019615;28;20040;-63
2023/05/22 01:04:31;;;;;;;28.42;25.40;;;;;;;;;;5019668;28;20030;-62
2023/05/22 01:06:57;;;;;;;28.65;25.50;;;;;;;;;;5020123;28;20062;-62
2023/05/22 01:09:24;;;;;;;29.02;25.95;;;;;;;;;;5019217;28;20038;-63
2023/05/22 01:11:54;;;;;;;27.92;24.95;;;;;;;;;;5019694;28;20080;-63
2023/05/22 01:14:20;;;;;;;28.17;25.38;;;;;;;;;;5019720;28;20026;-63
2023/05/22 01:16:49;;;;;;;28.00;25.15;;;;;;;;;;5019172;28;20053;-62
2023/05/22 01:19:34;;;;;;;28.80;25.90;;;;;;;;;;5004351;28;20053;-60
2023/05/22 01:22:06;;;;;;;27.88;24.98;;;;;;;;;;5005505;28;20029;-62
2023/05/22 01:24:50;;;;;;;29.95;26.20;;;;;;;;;;5021729;28;20494;-64
2023/05/22 01:27:24;;;;;;;27.38;24.60;;;;;;;;;;5003867;28;20036;-62
2023/05/22 01:29:53;;;;;;;27.77;24.90;;;;;;;;;;5003870;28;20026;-61
2023/05/22 01:32:21;;;;;;;28.50;25.60;;;;;;;;;;5004146;28;20025;-61
2023/05/22 01:34:51;;;;;;;28.15;25.17;;;;;;;;;;5021152;28;20037;-62
2023/05/22 01:37:20;;;;;;;28.52;25.63;;;;;;;;;;5004827;28;20034;-64
2023/05/22 01:39:46;;;;;;;28.38;25.48;;;;;;;;;;5022718;28;20153;-61
2023/05/22 01:42:12;;;;;;;27.88;25.05;;;;;;;;;;5005521;28;20410;-63
2023/05/22 01:44:38;;;;;;;28.45;25.45;;;;;;;;;;5021948;28;20080;-62
2023/05/22 01:47:05;;;;;;;28.92;26.02;;;;;;;;;;5004700;28;20033;-62
2023/05/22 01:49:35;;;;;;;28.08;25.27;;;;;;;;;;5022897;28;20109;-60
2023/05/22 01:52:14;;;;;;;28.17;25.27;;;;;;;;;;5018779;28;20085;-61
2023/05/22 01:54:52;;;;;;;29.63;26.63;;;;;;;;;;5041144;28;20378;-62
2023/05/22 01:57:20;;;;;;;27.05;24.35;;;;;;;;;;5025848;28;20026;-63
2023/05/22 01:59:49;;;;;;;29.52;26.52;;;;;;;;;;5024978;28;20025;-62
2023/05/22 02:02:17;;;;;;;28.20;25.50;;;;;;;;;;5024095;28;20033;-61
2023/05/22 02:04:45;;;;;;;28.02;25.13;;;;;;;;;;5023903;28;20060;-60
2023/05/22 02:07:13;;;;;;;28.35;25.40;;;;;;;;;;5041577;28;20025;-61
2023/05/22 02:09:39;;;;;;;28.65;25.85;;;;;;;;;;5024578;28;20048;-62
2023/05/22 02:12:06;;;;;;;29.42;26.38;;;;;;;;;;5041516;28;20440;-63
2023/05/22 02:14:32;;;;;;;28.65;25.77;;;;;;;;;;5040987;28;20030;-61
2023/05/22 02:17:00;;;;;;;30.52;27.63;;;;;;;;;;5039692;28;20049;-65
2023/05/22 02:19:27;;;;;;;29.20;26.23;;;;;;;;;;5039680;28;20065;-63
2023/05/22 02:21:53;;;;;;;30.08;27.08;;;;;;;;;;5040916;28;20467;-65
2023/05/22 02:24:19;;;;;;;29.25;26.08;;;;;;;;;;5041667;28;20548;-63
2023/05/22 02:26:46;;;;;;;29.90;26.95;;;;;;;;;;5041167;28;20025;-64
2023/05/22 02:29:12;;;;;;;30.45;27.25;;;;;;;;;;5040430;28;20025;-63
2023/05/22 02:31:38;;;;;;;30.80;27.60;;;;;;;;;;5041714;28;20028;-63
2023/05/22 02:34:05;;;;;;;29.17;26.02;;;;;;;;;;5040596;28;20064;-62
2023/05/22 02:36:31;;;;;;;29.83;26.83;;;;;;;;;;5040895;28;20022;-64
2023/05/22 02:38:58;;;;;;;29.23;26.27;;;;;;;;;;5040773;28;20625;-62
2023/05/22 02:41:24;;;;;;;30.92;27.83;;;;;;;;;;5040631;28;20040;-59
2023/05/22 02:43:50;;;;;;;30.52;27.40;;;;;;;;;;5040243;28;20036;-63
2023/05/22 02:46:16;;;;;;;31.73;28.63;;;;;;;;;;5040167;28;20026;-63
2023/05/22 02:48:44;;;;;;;30.52;27.35;;;;;;;;;;5040950;28;20097;-64
2023/05/22 02:51:10;;;;;;;31.07;27.90;;;;;;;;;;5022992;28;20505;-63
2023/05/22 02:53:39;;;;;;;31.05;27.85;;;;;;;;;;5040695;28;20126;-62
2023/05/22 02:56:06;;;;;;;31.35;28.05;;;;;;;;;;5017785;28;20021;-63
2023/05/22 02:58:32;;;;;;;32.03;28.97;;;;;;;;;;5040624;28;20086;-63
2023/05/22 03:00:58;;;;;;;29.67;26.88;;;;;;;;;;5022568;28;20279;-63
2023/05/22 03:03:24;;;;;;;30.52;26.83;;;;;;;;;;5040234;28;20036;-65
2023/05/22 03:05:57;;;;;;;30.27;27.17;;;;;;;;;;5039626;28;20085;-64
2023/05/22 03:08:23;;;;;;;29.20;26.27;;;;;;;;;;5039417;28;20025;-63
2023/05/22 03:10:49;;;;;;;29.75;26.77;;;;;;;;;;5022695;28;20040;-63
2023/05/22 03:13:15;;;;;;;29.35;26.25;;;;;;;;;;5023196;28;20022;-62
2023/05/22 03:15:41;;;;;;;29.05;26.10;;;;;;;;;;5039684;28;20171;-64
2023/05/22 03:18:07;;;;;;;29.88;26.80;;;;;;;;;;5040446;28;20100;-63
2023/05/22 03:20:33;;;;;;;28.83;26.00;;;;;;;;;;5040838;28;20136;-61
2023/05/22 03:22:59;;;;;;;29.27;26.23;;;;;;;;;;5022330;28;20097;-61
2023/05/22 03:25:25;;;;;;;27.77;24.95;;;;;;;;;;5040797;28;20309;-59
2023/05/22 03:27:51;;;;;;;29.85;26.85;;;;;;;;;;5040823;28;20141;-58
2023/05/22 03:30:17;;;;;;;29.63;26.60;;;;;;;;;;5041053;28;20393;-63
2023/05/22 03:32:43;;;;;;;30.38;27.30;;;;;;;;;;5040584;28;20169;-61
2023/05/22 03:35:09;;;;;;;29.75;26.85;;;;;;;;;;5022813;28;20025;-63
2023/05/22 03:37:35;;;;;;;29.83;26.80;;;;;;;;;;5041806;28;20060;-62
2023/05/22 03:40:02;;;;;;;30.50;27.50;;;;;;;;;;5041130;28;20077;-63
2023/05/22 03:42:28;;;;;;;29.38;26.38;;;;;;;;;;5041196;28;20056;-63
2023/05/22 03:44:54;;;;;;;30.02;26.88;;;;;;;;;;5038785;28;20029;-63
2023/05/22 03:47:20;;;;;;;30.70;27.58;;;;;;;;;;5038653;28;20024;-63
2023/05/22 03:49:46;;;;;;;31.30;27.90;;;;;;;;;;5040523;28;20036;-62
2023/05/22 03:52:12;;;;;;;31.77;28.58;;;;;;;;;;5022376;28;20026;-63
2023/05/22 03:54:38;;;;;;;30.45;27.30;;;;;;;;;;5039969;28;20248;-64
2023/05/22 03:57:04;;;;;;;32.08;28.77;;;;;;;;;;5039869;28;20032;-63
2023/05/22 03:59:30;;;;;;;32.70;29.33;;;;;;;;;;5039735;28;20101;-61
2023/05/22 04:01:56;;;;;;;32.00;28.60;;;;;;;;;;5038668;28;20512;-62
2023/05/22 04:04:25;;;;;;;31.50;28.23;;;;;;;;;;5022278;28;20474;-60
2023/05/22 04:06:51;;;;;;;30.83;27.65;;;;;;;;;;5022813;28;20357;-63
2023/05/22 04:09:17;;;;;;;29.92;26.85;;;;;;;;;;5041461;28;20030;-62
2023/05/22 04:11:45;;;;;;;30.95;27.85;;;;;;;;;;5041270;28;20026;-63
2023/05/22 04:14:11;;;;;;;30.92;27.65;;;;;;;;;;5022516;28;20024;-61
2023/05/22 04:16:37;;;;;;;31.63;28.40;;;;;;;;;;5038401;28;20036;-60
2023/05/22 04:19:04;;;;;;;31.50;28.20;;;;;;;;;;5037596;28;20091;-63
2023/05/22 04:21:34;;;;;;;32.72;29.33;;;;;;;;;;5021252;28;20022;-63
2023/05/22 04:24:00;;;;;;;32.05;28.95;;;;;;;;;;5039879;28;20044;-63
2023/05/22 04:26:30;;;;;;;32.45;29.25;;;;;;;;;;5039357;28;20029;-63
2023/05/22 04:28:56;;;;;;;31.52;28.33;;;;;;;;;;5040095;28;20468;-63
2023/05/22 04:31:22;;;;;;;32.28;28.58;;;;;;;;;;5039779;28;20053;-63
2023/05/22 04:33:49;;;;;;;32.30;28.90;;;;;;;;;;5022256;28;20374;-63
2023/05/22 04:36:16;;;;;;;32.08;28.75;;;;;;;;;;5039983;28;20056;-61
2023/05/22 04:38:43;;;;;;;31.92;28.63;;;;;;;;;;5022394;28;20048;-60
2023/05/22 04:41:09;;;;;;;31.90;28.70;;;;;;;;;;5040445;28;20511;-61
2023/05/22 04:43:37;;;;;;;31.73;28.55;;;;;;;;;;5039140;28;20056;-58
2023/05/22 04:46:03;;;;;;;30.33;27.33;;;;;;;;;;5039424;28;20044;-62
2023/05/22 04:48:29;;;;;;;32.33;29.02;;;;;;;;;;5038743;28;20025;-62
2023/05/22 04:50:57;;;;;;;30.95;27.83;;;;;;;;;;5037911;28;20032;-60
2023/05/22 04:53:23;;;;;;;31.55;28.45;;;;;;;;;;5022842;28;20029;-64
2023/05/22 04:55:49;;;;;;;31.85;28.58;;;;;;;;;;5042004;28;20021;-64
2023/05/22 04:58:15;;;;;;;30.05;27.10;;;;;;;;;;5038461;28;20028;-66
2023/05/22 05:00:41;;;;;;;31.10;28.10;;;;;;;;;;5015817;28;20025;-62
2023/05/22 05:03:10;;;;;;;29.60;26.70;;;;;;;;;;5015819;28;20032;-63
2023/05/22 05:05:36;;;;;;;31.20;28.10;;;;;;;;;;5033240;28;20466;-63
2023/05/22 05:08:02;;;;;;;29.80;26.80;;;;;;;;;;5015837;28;20120;-58
2023/05/22 05:10:28;;;;;;;28.73;25.83;;;;;;;;;;5033180;28;20052;-63
2023/05/22 05:12:54;;;;;;;30.92;27.50;;;;;;;;;;5033290;28;20049;-63
2023/05/22 05:15:21;;;;;;;29.95;26.80;;;;;;;;;;5032586;28;20036;-64
2023/05/22 05:17:47;;;;;;;29.23;26.33;;;;;;;;;;5033275;28;20438;-62
2023/05/22 05:20:13;;;;;;;28.15;25.25;;;;;;;;;;5015561;28;20064;-64
2023/05/22 05:22:42;;;;;;;28.58;25.45;;;;;;;;;;5019594;28;20113;-64
2023/05/22 05:25:08;;;;;;;28.42;25.52;;;;;;;;;;5012718;28;20390;-64
2023/05/22 05:27:34;;;;;;;29.02;26.08;;;;;;;;;;4997800;28;20141;-64
2023/05/22 05:30:01;;;;;;;28.77;25.88;;;;;;;;;;4994053;28;20023;-64
2023/05/22 05:32:27;;;;;;;29.95;26.88;;;;;;;;;;4995312;28;20022;-64
2023/05/22 05:34:53;;;;;;;27.50;24.60;;;;;;;;;;5012503;28;20033;-64
2023/05/22 05:37:19;;;;;;;27.83;24.92;;;;;;;;;;4995132;28;20026;-62
2023/05/22 05:39:45;;;;;;;29.10;25.00;;;;;;;;;;5003071;28;20030;-63
2023/05/22 05:42:11;;;;;;;27.98;24.95;;;;;;;;;;4975475;28;20026;-65
2023/05/22 05:44:37;;;;;;;28.02;24.67;;;;;;;;;;4992970;28;20653;-61
2023/05/22 05:47:03;;;;;;;28.10;25.05;;;;;;;;;;4994207;28;20030;-62
2023/05/22 05:49:29;;;;;;;27.85;24.55;;;;;;;;;;4993726;28;20390;-63
2023/05/22 05:51:55;;;;;;;27.40;23.60;;;;;;;;;;4975994;28;20142;-61
2023/05/22 05:54:21;;;;;;;26.48;22.73;;;;;;;;;;4992873;28;20097;-63
2023/05/22 05:56:47;;;;;;;27.88;23.55;;;;;;;;;;5002957;28;20029;-63
2023/05/22 05:59:13;;;;;;;29.33;22.73;;;;;;;;;;5012355;28;20030;-62
2023/05/22 06:01:44;;;;;;;27.42;21.67;;;;;;;;;;5012418;28;20091;-63
2023/05/22 06:04:11;;;;;;;27.73;21.95;;;;;;;;;;5011871;28;20479;-63
2023/05/22 06:06:38;;;;;;;26.25;22.25;;;;;;;;;;5012451;28;20084;-63
2023/05/22 06:09:05;;;;;;;28.70;22.58;;;;;;;;;;4995406;28;20018;-62
2023/05/22 06:11:31;;;;;;;25.58;20.58;;;;;;;;;;5014635;28;20033;-63
2023/05/22 06:13:58;;;;;;;28.27;21.50;;;;;;;;;;5013800;28;20113;-63
2023/05/22 06:16:24;;;;;;;27.50;21.88;;;;;;;;;;5048783;22;20549;-54
2023/05/22 06:18:51;;;;;;;26.02;22.40;;;;;;;;;;5053229;28;20021;-58
2023/05/22 06:21:19;;;;;;;26.58;20.70;;;;;;;;;;5053097;28;20036;-52
2023/05/22 06:23:45;;;;;;;;;;;;;;;;;;5069130;28;20021;-57
2023/05/22 06:26:12;;;;;;;31.30;21.90;;;;;;;;;;5053035;28;20430;-52
2023/05/22 06:28:38;;;;;;;26.70;21.90;;;;;;;;;;5053592;28;20103;-56
2023/05/22 06:31:04;;;;;;;33.65;23.10;;;;;;;;;;5053478;28;20017;-55
2023/05/22 06:33:30;;;;;;;27.17;22.92;;;;;;;;;;5051600;28;20022;-58
2023/05/22 06:35:57;;;;;;;25.90;22.27;;;;;;;;;;5054522;28;20104;-56
2023/05/22 06:38:26;;;;;;;28.17;22.77;;;;;;;;;;5054699;28;20031;-60
2023/05/22 06:40:52;;;;;;;26.80;21.55;;;;;;;;;;5052355;28;20031;-56
2023/05/22 06:43:18;;;;;;;29.52;22.77;;;;;;;;;;5051722;28;20116;-56
2023/05/22 06:45:44;;;;;;;27.35;21.63;;;;;;;;;;5052454;28;20091;-56
2023/05/22 06:48:11;;;;;;;27.60;21.95;;;;;;;;;;5052635;28;20060;-57
2023/05/22 06:50:37;;;;;;;28.90;21.80;;;;;;;;;;5051680;28;20025;-57
2023/05/22 06:53:03;;;;;;;31.10;23.83;;;;;;;;;;5051310;28;20025;-54
2023/05/22 06:55:29;;;;;;;30.60;23.50;;;;;;;;;;5052286;28;20025;-57
2023/05/22 06:57:55;;;;;;;30.38;22.70;;;;;;;;;;5050796;28;20047;-52
2023/05/22 07:00:21;;;;;;;28.80;22.48;;;;;;;;;;5052908;28;20033;-53
2023/05/22 07:02:48;;;;;;;30.23;23.98;;;;;;;;;;5052928;28;20025;-51
2023/05/22 07:05:14;;;;;;;31.77;23.98;;;;;;;;;;5051906;28;20056;-50
2023/05/22 07:07:40;;;;;;;29.15;23.48;;;;;;;;;;5051977;28;20049;-52
2023/05/22 07:10:06;;;;;;;28.58;23.15;;;;;;;;;;5052148;28;20536;-51
2023/05/22 07:12:32;;;;;;;28.92;23.23;;;;;;;;;;5051976;28;20025;-52
2023/05/22 07:14:59;;;;;;;29.00;24.08;;;;;;;;;;5051615;28;20364;-52
2023/05/22 07:17:25;;;;;;;29.20;23.45;;;;;;;;;;5051916;28;20043;-51
2023/05/22 07:19:51;;;;;;;26.98;22.83;;;;;;;;;;5052014;28;20098;-57
2023/05/22 07:22:17;;;;;;;30.88;23.95;;;;;;;;;;5050824;28;20036;-57
2023/05/22 07:24:43;;;;;;;29.90;23.08;;;;;;;;;;5051641;28;20021;-54
2023/05/22 07:27:11;;;;;;;26.77;22.42;;;;;;;;;;5051994;28;20082;-50
2023/05/22 07:29:37;;;;;;;32.50;22.43;;;;;;;;;;5051892;28;20493;-52
2023/05/22 07:32:03;;;;;;;27.48;23.13;;;;;;;;;;5051873;28;20259;-52
2023/05/22 07:34:33;;;;;;;29.90;23.38;;;;;;;;;;5051161;28;20025;-54
2023/05/22 07:36:59;;;;;;;29.63;22.35;;;;;;;;;;5051760;28;20070;-57
2023/05/22 07:39:26;;;;;;;29.13;22.67;;;;;;;;;;5051551;28;20024;-58
2023/05/22 07:41:53;;;;;;;29.27;22.30;;;;;;;;;;5048791;28;20626;-60
2023/05/22 07:44:19;;;;;;;32.85;22.23;;;;;;;;;;5051202;28;20044;-56
2023/05/22 07:46:45;;;;;;;29.08;22.08;;;;;;;;;;5051598;28;20025;-53
2023/05/22 07:49:11;;;;;;;30.80;21.95;;;;;;;;;;5050111;28;20025;-55
2023/05/22 07:51:37;;;;;;;28.02;22.90;;;;;;;;;;5051454;28;20568;-58
2023/05/22 07:54:03;;;;;;;27.35;21.40;;;;;;;;;;5051351;28;20029;-58
2023/05/22 07:56:29;;;;;;;28.33;23.20;;;;;;;;;;5051707;28;20075;-57
2023/05/22 07:58:55;;;;;;;30.83;22.45;;;;;;;;;;5050024;28;20116;-60
2023/05/22 08:01:22;;;;;;;26.10;21.25;;;;;;;;;;5051286;28;20025;-55
2023/05/22 08:03:48;;;;;;;28.45;22.02;;;;;;;;;;5051424;28;20022;-58
2023/05/22 08:06:16;;;;;;;32.85;24.17;;;;;;;;;;5049886;28;20036;-58
2023/05/22 08:08:42;;;;;;;28.15;22.52;;;;;;;;;;5051455;28;20032;-57
2023/05/22 08:11:08;;;;;;;29.13;23.27;;;;;;;;;;5051406;28;20021;-60
2023/05/22 08:13:36;;;;;;;28.70;24.38;;;;;;;;;;5050109;28;20052;-58
2023/05/22 08:16:02;;;;;;;27.58;22.52;;;;;;;;;;5051147;28;20078;-58
2023/05/22 08:18:28;;;;;;;26.73;21.38;;;;;;;;;;5049824;28;20025;-58
2023/05/22 08:20:54;;;;;;;25.80;21.60;;;;;;;;;;5051651;28;20098;-58
2023/05/22 08:23:20;;;;;;;29.00;23.17;;;;;;;;;;5049518;28;20025;-58
2023/05/22 08:25:46;;;;;;;28.15;23.05;;;;;;;;;;5030965;28;20449;-58
2023/05/22 08:28:12;;;;;;;26.63;22.10;;;;;;;;;;5035777;28;20041;-58
2023/05/22 08:30:38;;;;;;;26.73;22.40;;;;;;;;;;5035724;28;20028;-58
2023/05/22 08:33:04;;;;;;;27.52;21.70;;;;;;;;;;5035242;28;20437;-57
2023/05/22 08:35:30;;;;;;;30.88;22.67;;;;;;;;;;5034661;28;20091;-61
2023/05/22 08:37:56;;;;;;;26.48;22.85;;;;;;;;;;5035218;28;20029;-61
2023/05/22 08:40:23;;;;;;;31.63;22.95;;;;;;;;;;5035046;28;20053;-61
2023/05/22 08:42:53;;;;;;;26.58;22.25;;;;;;;;;;5053810;28;20063;-57
2023/05/22 08:45:19;;;;;;;29.70;22.42;;;;;;;;;;5053069;28;20412;-61
2023/05/22 08:47:50;;;;;;;28.27;20.65;;;;;;;;;;5054746;28;20029;-60
2023/05/22 08:50:17;;;;;;;28.38;21.55;;;;;;;;;;5053255;28;20040;-56
2023/05/22 08:52:49;;;;;;;30.30;22.05;;;;;;;;;;5053331;28;20400;-57
2023/05/22 08:55:18;;;;;;;28.02;22.65;;;;;;;;;;5052194;28;20527;-59
2023/05/22 08:57:44;;;;;;;28.83;22.75;;;;;;;;;;5068820;28;20064;-56
2023/05/22 09:00:10;;;;;;;26.10;21.95;;;;;;;;;;5054481;28;20493;-52
2023/05/22 09:02:37;;;;;;;27.75;21.98;;;;;;;;;;5053224;28;20040;-58
2023/05/22 09:05:05;;;;;;;25.73;22.02;;;;;;;;;;5052905;28;20040;-53
2023/05/22 09:07:31;;;;;;;26.38;21.75;;;;;;;;;;5054928;28;20025;-56
2023/05/22 09:09:57;;;;;;;28.15;21.83;;;;;;;;;;5053751;28;20033;-54
2023/05/22 09:12:26;;;;;;;27.60;23.60;;;;;;;;;;5053069;28;20406;-56
2023/05/22 09:14:52;;;;;;;28.48;22.00;;;;;;;;;;5054235;28;20029;-55
2023/05/22 09:17:19;;;;;;;26.63;22.60;;;;;;;;;;5053160;28;20427;-58
2023/05/22 09:19:45;;;;;;;27.23;21.90;;;;;;;;;;5054343;28;20040;-58
2023/05/22 09:22:12;;;;;;;28.77;23.08;;;;;;;;;;5054341;28;20041;-56
2023/05/22 09:24:39;;;;;;;28.10;23.50;;;;;;;;;;5052956;28;20572;-57
2023/05/22 09:27:09;;;;;;;30.63;24.73;;;;;;;;;;5053044;28;20078;-59
2023/05/22 09:30:01;;;;;;;30.17;23.50;;;;;;;;;;5054229;28;20028;-58
2023/05/22 09:32:30;;;;;;;28.95;23.35;;;;;;;;;;5052410;28;20523;-57
2023/05/22 09:35:02;;;;;;;28.27;22.55;;;;;;;;;;5052742;28;20454;-59
2023/05/22 09:37:33;;;;;;;25.58;21.73;;;;;;;;;;5053729;28;20021;-58
2023/05/22 09:39:59;;;;;;;28.90;21.17;;;;;;;;;;5053564;28;20044;-59
2023/05/22 09:42:25;;;;;;;27.58;21.52;;;;;;;;;;5052535;28;20031;-60
2023/05/22 09:44:51;;;;;;;28.85;22.52;;;;;;;;;;5053628;28;20412;-60
2023/05/22 09:47:17;;;;;;;28.23;23.23;;;;;;;;;;5054094;28;20021;-59
2023/05/22 09:49:43;;;;;;;33.67;22.67;;;;;;;;;;5053362;28;20017;-57
2023/05/22 09:52:13;;;;;;;26.52;21.83;;;;;;;;;;5052029;28;20029;-58
2023/05/22 09:54:53;;;;;;;29.05;24.38;;;;;;;;;;5053663;28;20091;-60
2023/05/22 09:57:20;;;;;;;30.75;23.33;;;;;;;;;;5053683;28;20041;-55
2023/05/22 09:59:53;;;;;;;28.00;23.20;;;;;;;;;;5053547;28;20069;-61
2023/05/22 10:02:23;;;;;;;30.05;23.80;;;;;;;;;;5053795;28;20610;-57
2023/05/22 10:04:49;;;;;;;29.52;24.13;;;;;;;;;;5052938;28;20074;-58
2023/05/22 10:07:16;;;;;;;27.85;24.05;;;;;;;;;;5052292;28;20025;-56
2023/05/22 10:09:44;;;;;;;30.45;23.98;;;;;;;;;;5053918;28;20025;-59
2023/05/22 10:12:15;;;;;;;28.67;24.42;;;;;;;;;;5053665;28;20032;-58
2023/05/22 10:14:41;;;;;;;29.63;24.85;;;;;;;;;;5051837;28;20115;-56
2023/05/22 10:17:07;;;;;;;29.60;24.80;;;;;;;;;;5051079;28;20029;-56
2023/05/22 10:19:35;;;;;;;28.58;23.25;;;;;;;;;;5051312;28;20017;-58
2023/05/22 10:22:02;;;;;;;28.50;24.70;;;;;;;;;;5051500;28;20017;-56
2023/05/22 10:24:29;;;;;;;28.02;23.77;;;;;;;;;;5051175;28;20028;-58
2023/05/22 10:26:55;;;;;;;27.23;23.05;;;;;;;;;;5047559;28;20025;-54
2023/05/22 10:29:24;;;;;;;28.85;22.63;;;;;;;;;;5049049;28;20032;-57
2023/05/22 10:31:49;;;;;;;;;;;;;;;;;;5053563;28;20025;-57
2023/05/22 10:34:51;;;;;;;32.90;25.05;;;;;;;;;;5051486;28;19916;-58
2023/05/22 10:37:36;;;;;;;33.15;25.10;;;;;;;;;;4974842;28;20398;-57
2023/05/22 10:40:04;;;;;;;26.75;22.20;;;;;;;;;;5045412;28;20139;-58
2023/05/22 10:42:31;;;;;;;29.92;23.75;;;;;;;;;;5051401;28;20033;-59
2023/05/22 10:44:58;;;;;;;26.65;23.40;;;;;;;;;;5052727;28;20182;-61
2023/05/22 10:47:27;;;;;;;31.73;24.73;;;;;;;;;;5051610;28;20028;-57
2023/05/22 10:50:02;;;;;;;29.35;24.75;;;;;;;;;;5052672;28;20017;-60
2023/05/22 10:52:28;;;;;;;28.25;24.20;;;;;;;;;;5052585;28;20032;-58
2023/05/22 10:54:54;;;;;;;29.52;24.65;;;;;;;;;;5052276;28;20075;-59
2023/05/22 10:57:23;;;;;;;28.48;24.52;;;;;;;;;;5051322;28;20021;-58
2023/05/22 10:59:50;;;;;;;31.23;23.23;;;;;;;;;;5051391;28;20124;-59
2023/05/22 11:02:28;;;;;;;30.77;23.70;;;;;;;;;;5051255;28;20664;-55
2023/05/22 11:04:54;;;;;;;;;;;;;;;;;;5051552;28;20017;-59
2023/05/22 11:07:20;;;;;;;28.30;23.42;;;;;;;;;;5052966;28;19905;-59
2023/05/22 11:09:47;;;;;;;27.15;22.58;;;;;;;;;;5052869;28;20049;-59
2023/05/22 11:12:16;;;;;;;27.17;22.67;;;;;;;;;;5052733;28;20052;-65
2023/05/22 11:15:12;;;;;;;28.17;22.80;;;;;;;;;;5050919;28;20021;-53
2023/05/22 11:17:45;;;;;;;30.75;25.40;;;;;;;;;;5034667;28;20102;-55
2023/05/22 11:20:24;;;;;;;29.48;24.67;;;;;;;;;;5052567;28;20040;-59
2023/05/22 11:22:56;;;;;;;28.95;25.52;;;;;;;;;;5052165;28;20035;-53
2023/05/22 11:25:22;;;;;;;28.83;25.42;;;;;;;;;;5050419;28;20028;-53
2023/05/22 11:27:48;;;;;;;29.15;26.00;;;;;;;;;;5051987;28;20070;-55
2023/05/22 11:30:15;;;;;;;28.33;24.95;;;;;;;;;;5051748;28;20168;-53
2023/05/22 11:32:45;;;;;;;28.45;25.40;;;;;;;;;;5048718;28;20625;-57
2023/05/22 11:35:14;;;;;;;29.30;24.42;;;;;;;;;;5045787;28;20033;-56
2023/05/22 11:37:41;;;;;;;29.10;26.00;;;;;;;;;;5051196;28;20028;-59
2023/05/22 11:40:07;;;;;;;28.80;24.92;;;;;;;;;;5050440;28;20017;-53
2023/05/22 11:42:34;;;;;;;30.00;25.33;;;;;;;;;;5051196;28;20080;-58
2023/05/22 11:45:00;;;;;;;28.88;25.83;;;;;;;;;;5047489;28;20126;-61
2023/05/22 11:47:27;;;;;;;29.70;26.50;;;;;;;;;;5063411;28;20447;-63
2023/05/22 11:49:54;;;;;;;28.02;24.95;;;;;;;;;;5050297;28;20028;-57
2023/05/22 11:52:20;;;;;;;27.25;24.35;;;;;;;;;;5051802;28;20497;-54
2023/05/22 11:54:46;;;;;;;32.58;26.20;;;;;;;;;;5050179;28;20067;-57
2023/05/22 11:57:12;;;;;;;28.58;25.58;;;;;;;;;;5051774;28;20104;-58
2023/05/22 11:59:38;;;;;;;27.67;24.27;;;;;;;;;;5052280;28;20025;-57
2023/05/22 12:02:06;;;;;;;28.98;24.63;;;;;;;;;;5054728;28;20021;-61
2023/05/22 12:04:32;;;;;;;29.00;26.00;;;;;;;;;;5055738;28;20025;-59
2023/05/22 12:06:58;;;;;;;29.08;24.92;;;;;;;;;;5056377;28;20017;-54
2023/05/22 12:09:26;;;;;;;28.00;24.23;;;;;;;;;;5053700;28;20048;-57
2023/05/22 12:11:56;;;;;;;26.35;23.58;;;;;;;;;;5051995;28;20028;-63
2023/05/22 12:14:30;;;;;;;26.90;24.05;;;;;;;;;;5051126;28;20488;-58
2023/05/22 12:16:59;;;;;;;27.98;24.92;;;;;;;;;;5053918;22;20122;-55
2023/05/22 12:19:26;;;;;;;27.38;24.55;;;;;;;;;;4991671;28;20023;-56
2023/05/22 12:21:52;;;;;;;26.13;23.52;;;;;;;;;;4991650;28;20022;-54
2023/05/22 12:24:22;;;;;;;26.05;23.05;;;;;;;;;;4990420;28;20022;-54
2023/05/22 12:26:55;;;;;;;25.83;23.23;;;;;;;;;;4990649;28;20047;-53
2023/05/22 12:29:22;;;;;;;26.77;24.00;;;;;;;;;;4991705;28;20029;-55
2023/05/22 12:31:48;;;;;;;26.67;23.88;;;;;;;;;;4991634;28;20025;-55
2023/05/22 12:34:17;;;;;;;31.50;23.33;;;;;;;;;;4991110;28;20419;-54
2023/05/22 12:36:44;;;;;;;25.77;22.98;;;;;;;;;;4991294;28;20022;-52
2023/05/22 12:39:11;;;;;;;26.77;23.75;;;;;;;;;;4990410;28;20390;-56
2023/05/22 12:41:38;;;;;;;26.40;23.70;;;;;;;;;;4991219;28;20077;-53
2023/05/22 12:44:04;;;;;;;27.48;24.50;;;;;;;;;;4991428;28;20046;-56
2023/05/22 12:46:30;;;;;;;27.15;24.30;;;;;;;;;;4991041;28;20022;-58
2023/05/22 12:48:57;;;;;;;25.38;22.42;;;;;;;;;;4991817;28;20030;-55
2023/05/22 12:51:25;;;;;;;27.48;23.90;;;;;;;;;;4991709;28;20041;-56
2023/05/22 12:53:51;;;;;;;26.20;23.45;;;;;;;;;;4990042;28;20015;-59
2023/05/22 12:56:17;;;;;;;26.95;23.42;;;;;;;;;;4987469;28;20026;-55
2023/05/22 12:58:43;;;;;;;27.98;25.13;;;;;;;;;;4991214;28;20116;-54
2023/05/22 13:01:09;;;;;;;25.80;23.05;;;;;;;;;;4991486;28;20034;-53
2023/05/22 13:03:35;;;;;;;28.02;25.02;;;;;;;;;;4991399;28;20027;-55
2023/05/22 13:06:01;;;;;;;27.10;24.30;;;;;;;;;;4990982;28;20398;-54
2023/05/22 13:08:27;;;;;;;25.60;22.90;;;;;;;;;;4991175;28;20031;-58
2023/05/22 13:10:53;;;;;;;26.48;22.23;;;;;;;;;;4991543;28;20112;-57
2023/05/22 13:13:19;;;;;;;25.60;23.00;;;;;;;;;;4992245;28;20030;-55
2023/05/22 13:15:46;;;;;;;26.40;22.92;;;;;;;;;;4994732;28;20046;-57
2023/05/22 13:18:12;;;;;;;26.48;23.77;;;;;;;;;;4994633;28;20594;-58
2023/05/22 13:20:38;;;;;;;26.75;24.05;;;;;;;;;;4992596;28;20038;-58
2023/05/22 13:23:05;;;;;;;24.90;22.33;;;;;;;;;;4992951;28;20018;-54
2023/05/22 13:25:31;;;;;;;24.52;21.98;;;;;;;;;;4992509;28;20036;-55
2023/05/22 13:27:57;;;;;;;25.60;22.55;;;;;;;;;;4993888;28;20097;-54
2023/05/22 13:30:23;;;;;;;25.40;22.58;;;;;;;;;;4994004;28;20022;-54
2023/05/22 13:32:50;;;;;;;24.17;21.67;;;;;;;;;;4994471;28;20030;-56
2023/05/22 13:35:16;;;;;;;24.33;21.83;;;;;;;;;;4991314;28;20026;-54
2023/05/22 13:37:42;;;;;;;24.48;21.95;;;;;;;;;;4987784;28;20033;-53
2023/05/22 13:40:08;;;;;;;24.85;22.17;;;;;;;;;;4994210;28;20475;-53
2023/05/22 13:42:35;;;;;;;24.30;21.88;;;;;;;;;;4994026;28;20049;-57
2023/05/22 13:45:01;;;;;;;26.63;24.02;;;;;;;;;;4993866;28;20030;-57
2023/05/22 13:47:27;;;;;;;25.20;22.70;;;;;;;;;;4993886;28;20039;-55
2023/05/22 13:49:53;;;;;;;27.13;24.27;;;;;;;;;;4993709;28;20048;-51
2023/05/22 13:52:19;;;;;;;25.45;22.95;;;;;;;;;;4994300;28;20893;-53
2023/05/22 13:54:45;;;;;;;26.02;23.42;;;;;;;;;;4993589;28;20029;-56
2023/05/22 13:57:11;;;;;;;24.58;22.15;;;;;;;;;;4993468;28;20034;-53
2023/05/22 13:59:37;;;;;;;25.60;23.10;;;;;;;;;;4992637;28;20085;-55
2023/05/22 14:02:03;;;;;;;25.20;22.75;;;;;;;;;;4994103;28;20030;-57
2023/05/22 14:04:29;;;;;;;25.77;23.23;;;;;;;;;;4993852;28;20030;-55
2023/05/22 14:06:55;;;;;;;27.73;25.02;;;;;;;;;;4993812;28;20029;-54
2023/05/22 14:09:21;;;;;;;27.02;24.33;;;;;;;;;;4994060;28;20022;-55
2023/05/22 14:11:47;;;;;;;25.05;22.55;;;;;;;;;;4992721;28;20023;-55
2023/05/22 14:14:13;;;;;;;26.58;24.00;;;;;;;;;;4993193;28;20023;-54
2023/05/22 14:16:39;;;;;;;25.75;23.05;;;;;;;;;;4992317;28;20394;-53
2023/05/22 14:19:05;;;;;;;26.55;23.95;;;;;;;;;;4993946;28;20027;-54